sensor_id;sensor_type;location;lat;lon;timestamp;P1;durP1;ratioP1;P2;durP2;ratioP2
40755;SDS011;26461;45.630;9.418;2023-10-08T00:00:48;14.93;;;9.80;;
40755;SDS011;26461;45.630;9.418;2023-10-08T00:04:05;13.20;;;9.30;;
40755;SDS011;26461;45.630;9.418;2023-10-08T00:07:25;15.53;;;10.00;;
40755;SDS011;26461;45.630;9.418;2023-10-08T00:10:37;16.03;;;11.23;;
40755;SDS011;26461;45.630;9.418;2023-10-08T00:13:52;17.77;;;8.60;;
40755;SDS011;26461;45.630;9.418;2023-10-08T00:17:05;14.40;;;9.97;;
40755;SDS011;26461;45.630;9.418;2023-10-08T00:20:19;13.30;;;10.50;;
40755;SDS011;26461;45.630;9.418;2023-10-08T00:23:37;11.97;;;9.27;;
40755;SDS011;26461;45.630;9.418;2023-10-08T00:27:02;12.07;;;7.97;;
40755;SDS011;26461;45.630;9.418;2023-10-08T00:30:15;13.57;;;9.83;;
40755;SDS011;26461;45.630;9.418;2023-10-08T00:33:27;14.50;;;9.93;;
40755;SDS011;26461;45.630;9.418;2023-10-08T00:36:43;14.47;;;10.47;;
40755;SDS011;26461;45.630;9.418;2023-10-08T00:39:53;12.50;;;9.23;;
40755;SDS011;26461;45.630;9.418;2023-10-08T00:43:01;14.00;;;9.60;;
40755;SDS011;26461;45.630;9.418;2023-10-08T00:46:13;13.67;;;9.63;;
40755;SDS011;26461;45.630;9.418;2023-10-08T00:49:33;12.83;;;9.00;;
40755;SDS011;26461;45.630;9.418;2023-10-08T00:52:47;13.00;;;9.03;;
40755;SDS011;26461;45.630;9.418;2023-10-08T00:56:12;10.80;;;8.53;;
40755;SDS011;26461;45.630;9.418;2023-10-08T00:59:18;11.53;;;8.10;;
40755;SDS011;26461;45.630;9.418;2023-10-08T01:02:31;10.33;;;7.83;;
40755;SDS011;26461;45.630;9.418;2023-10-08T01:05:57;14.50;;;8.33;;
40755;SDS011;26461;45.630;9.418;2023-10-08T01:09:07;10.53;;;7.80;;
40755;SDS011;26461;45.630;9.418;2023-10-08T01:12:27;13.20;;;8.20;;
40755;SDS011;26461;45.630;9.418;2023-10-08T01:15:43;11.17;;;7.90;;
40755;SDS011;26461;45.630;9.418;2023-10-08T01:18:54;12.63;;;7.10;;
40755;SDS011;26461;45.630;9.418;2023-10-08T01:22:04;11.27;;;7.20;;
40755;SDS011;26461;45.630;9.418;2023-10-08T01:25:17;11.50;;;8.30;;
40755;SDS011;26461;45.630;9.418;2023-10-08T01:28:34;11.90;;;7.80;;
40755;SDS011;26461;45.630;9.418;2023-10-08T01:31:44;10.00;;;7.67;;
40755;SDS011;26461;45.630;9.418;2023-10-08T01:34:55;10.13;;;7.43;;
40755;SDS011;26461;45.630;9.418;2023-10-08T01:38:05;10.17;;;6.60;;
40755;SDS011;26461;45.630;9.418;2023-10-08T01:41:17;8.90;;;6.70;;
40755;SDS011;26461;45.630;9.418;2023-10-08T01:44:34;9.70;;;7.23;;
40755;SDS011;26461;45.630;9.418;2023-10-08T01:47:44;9.70;;;7.63;;
40755;SDS011;26461;45.630;9.418;2023-10-08T01:50:57;9.63;;;6.57;;
40755;SDS011;26461;45.630;9.418;2023-10-08T01:54:18;9.37;;;6.83;;
40755;SDS011;26461;45.630;9.418;2023-10-08T01:57:30;16.40;;;5.97;;
40755;SDS011;26461;45.630;9.418;2023-10-08T02:00:46;11.50;;;7.13;;
40755;SDS011;26461;45.630;9.418;2023-10-08T02:03:56;11.40;;;7.30;;
40755;SDS011;26461;45.630;9.418;2023-10-08T02:07:06;9.30;;;6.37;;
40755;SDS011;26461;45.630;9.418;2023-10-08T02:10:22;8.13;;;5.17;;
40755;SDS011;26461;45.630;9.418;2023-10-08T02:13:34;7.70;;;5.50;;
40755;SDS011;26461;45.630;9.418;2023-10-08T02:16:44;10.60;;;7.13;;
40755;SDS011;26461;45.630;9.418;2023-10-08T02:19:54;7.93;;;5.97;;
40755;SDS011;26461;45.630;9.418;2023-10-08T02:22:59;7.30;;;5.90;;
40755;SDS011;26461;45.630;9.418;2023-10-08T02:26:09;10.10;;;5.97;;
40755;SDS011;26461;45.630;9.418;2023-10-08T02:29:19;9.60;;;6.33;;
40755;SDS011;26461;45.630;9.418;2023-10-08T02:32:30;7.33;;;6.17;;
40755;SDS011;26461;45.630;9.418;2023-10-08T02:35:36;10.80;;;6.90;;
40755;SDS011;26461;45.630;9.418;2023-10-08T02:38:45;8.40;;;4.73;;
40755;SDS011;26461;45.630;9.418;2023-10-08T02:41:51;6.77;;;5.43;;
40755;SDS011;26461;45.630;9.418;2023-10-08T02:45:02;9.53;;;6.77;;
40755;SDS011;26461;45.630;9.418;2023-10-08T02:48:13;9.27;;;6.03;;
40755;SDS011;26461;45.630;9.418;2023-10-08T02:51:23;9.63;;;5.87;;
40755;SDS011;26461;45.630;9.418;2023-10-08T02:54:33;8.43;;;5.73;;
40755;SDS011;26461;45.630;9.418;2023-10-08T02:57:41;9.70;;;5.97;;
40755;SDS011;26461;45.630;9.418;2023-10-08T03:00:53;7.50;;;5.93;;
40755;SDS011;26461;45.630;9.418;2023-10-08T03:04:03;9.00;;;6.20;;
40755;SDS011;26461;45.630;9.418;2023-10-08T03:07:17;7.23;;;5.33;;
40755;SDS011;26461;45.630;9.418;2023-10-08T03:10:32;7.00;;;6.10;;
40755;SDS011;26461;45.630;9.418;2023-10-08T03:13:45;12.10;;;6.53;;
40755;SDS011;26461;45.630;9.418;2023-10-08T03:16:56;6.03;;;4.53;;
40755;SDS011;26461;45.630;9.418;2023-10-08T03:20:16;10.50;;;6.17;;
40755;SDS011;26461;45.630;9.418;2023-10-08T03:23:38;8.00;;;5.47;;
40755;SDS011;26461;45.630;9.418;2023-10-08T03:26:58;9.93;;;6.20;;
40755;SDS011;26461;45.630;9.418;2023-10-08T03:30:35;8.93;;;5.67;;
40755;SDS011;26461;45.630;9.418;2023-10-08T03:33:57;6.97;;;5.00;;
40755;SDS011;26461;45.630;9.418;2023-10-08T03:37:07;9.07;;;4.43;;
40755;SDS011;26461;45.630;9.418;2023-10-08T03:40:12;8.00;;;5.10;;
40755;SDS011;26461;45.630;9.418;2023-10-08T03:43:34;8.23;;;5.83;;
40755;SDS011;26461;45.630;9.418;2023-10-08T03:46:51;10.00;;;5.37;;
40755;SDS011;26461;45.630;9.418;2023-10-08T03:50:01;9.27;;;5.70;;
40755;SDS011;26461;45.630;9.418;2023-10-08T03:53:15;8.63;;;5.20;;
40755;SDS011;26461;45.630;9.418;2023-10-08T03:56:26;9.95;;;6.25;;
40755;SDS011;26461;45.630;9.418;2023-10-08T03:59:39;7.73;;;5.60;;
40755;SDS011;26461;45.630;9.418;2023-10-08T04:02:52;8.30;;;4.97;;
40755;SDS011;26461;45.630;9.418;2023-10-08T04:06:05;8.98;;;5.60;;
40755;SDS011;26461;45.630;9.418;2023-10-08T04:09:24;7.43;;;5.53;;
40755;SDS011;26461;45.630;9.418;2023-10-08T04:12:34;9.90;;;6.23;;
40755;SDS011;26461;45.630;9.418;2023-10-08T04:15:45;8.57;;;5.40;;
40755;SDS011;26461;45.630;9.418;2023-10-08T04:18:55;13.45;;;6.32;;
40755;SDS011;26461;45.630;9.418;2023-10-08T04:22:05;8.20;;;5.47;;
40755;SDS011;26461;45.630;9.418;2023-10-08T04:25:23;7.22;;;5.68;;
40755;SDS011;26461;45.630;9.418;2023-10-08T04:28:34;8.82;;;5.93;;
40755;SDS011;26461;45.630;9.418;2023-10-08T04:31:44;7.63;;;5.13;;
40755;SDS011;26461;45.630;9.418;2023-10-08T04:34:56;7.47;;;5.93;;
40755;SDS011;26461;45.630;9.418;2023-10-08T04:38:06;15.10;;;7.03;;
40755;SDS011;26461;45.630;9.418;2023-10-08T04:41:17;10.23;;;6.50;;
40755;SDS011;26461;45.630;9.418;2023-10-08T04:44:28;9.40;;;5.57;;
40755;SDS011;26461;45.630;9.418;2023-10-08T04:47:41;24.70;;;7.55;;
40755;SDS011;26461;45.630;9.418;2023-10-08T04:50:51;9.90;;;7.10;;
40755;SDS011;26461;45.630;9.418;2023-10-08T04:54:07;11.80;;;7.30;;
40755;SDS011;26461;45.630;9.418;2023-10-08T04:57:18;7.93;;;6.38;;
40755;SDS011;26461;45.630;9.418;2023-10-08T05:00:31;8.60;;;6.10;;
40755;SDS011;26461;45.630;9.418;2023-10-08T05:04:07;12.13;;;5.85;;
40755;SDS011;26461;45.630;9.418;2023-10-08T05:07:32;10.80;;;8.20;;
40755;SDS011;26461;45.630;9.418;2023-10-08T05:10:54;15.52;;;6.38;;
40755;SDS011;26461;45.630;9.418;2023-10-08T05:14:25;12.80;;;7.60;;
40755;SDS011;26461;45.630;9.418;2023-10-08T05:17:47;12.63;;;6.50;;
40755;SDS011;26461;45.630;9.418;2023-10-08T05:21:00;8.25;;;6.47;;
40755;SDS011;26461;45.630;9.418;2023-10-08T05:24:13;13.55;;;7.35;;
40755;SDS011;26461;45.630;9.418;2023-10-08T05:27:24;11.07;;;7.20;;
40755;SDS011;26461;45.630;9.418;2023-10-08T05:30:47;14.65;;;7.45;;
40755;SDS011;26461;45.630;9.418;2023-10-08T05:34:04;14.48;;;8.93;;
40755;SDS011;26461;45.630;9.418;2023-10-08T05:37:32;11.07;;;7.80;;
40755;SDS011;26461;45.630;9.418;2023-10-08T05:40:47;10.32;;;8.02;;
40755;SDS011;26461;45.630;9.418;2023-10-08T05:44:06;11.50;;;8.95;;
40755;SDS011;26461;45.630;9.418;2023-10-08T05:47:33;11.63;;;7.93;;
40755;SDS011;26461;45.630;9.418;2023-10-08T05:50:43;14.20;;;8.73;;
40755;SDS011;26461;45.630;9.418;2023-10-08T05:54:04;22.88;;;8.30;;
40755;SDS011;26461;45.630;9.418;2023-10-08T05:57:34;18.67;;;8.82;;
40755;SDS011;26461;45.630;9.418;2023-10-08T06:00:50;14.07;;;9.82;;
40755;SDS011;26461;45.630;9.418;2023-10-08T06:04:01;22.58;;;11.57;;
40755;SDS011;26461;45.630;9.418;2023-10-08T06:07:29;15.25;;;11.60;;
40755;SDS011;26461;45.630;9.418;2023-10-08T06:10:57;20.15;;;12.82;;
40755;SDS011;26461;45.630;9.418;2023-10-08T06:14:11;30.13;;;15.98;;
40755;SDS011;26461;45.630;9.418;2023-10-08T06:17:37;31.42;;;18.23;;
40755;SDS011;26461;45.630;9.418;2023-10-08T06:21:08;28.35;;;15.30;;
40755;SDS011;26461;45.630;9.418;2023-10-08T06:24:13;30.30;;;17.80;;
40755;SDS011;26461;45.630;9.418;2023-10-08T06:27:21;34.00;;;19.98;;
40755;SDS011;26461;45.630;9.418;2023-10-08T06:30:29;34.70;;;20.45;;
40755;SDS011;26461;45.630;9.418;2023-10-08T06:33:44;34.45;;;21.58;;
40755;SDS011;26461;45.630;9.418;2023-10-08T06:36:55;33.78;;;20.90;;
40755;SDS011;26461;45.630;9.418;2023-10-08T06:40:07;31.67;;;19.38;;
40755;SDS011;26461;45.630;9.418;2023-10-08T06:43:37;33.20;;;21.35;;
40755;SDS011;26461;45.630;9.418;2023-10-08T06:46:47;28.95;;;19.20;;
40755;SDS011;26461;45.630;9.418;2023-10-08T06:49:57;32.10;;;19.03;;
40755;SDS011;26461;45.630;9.418;2023-10-08T06:53:03;32.17;;;19.27;;
40755;SDS011;26461;45.630;9.418;2023-10-08T06:56:12;30.08;;;20.20;;
40755;SDS011;26461;45.630;9.418;2023-10-08T06:59:22;31.88;;;20.30;;
40755;SDS011;26461;45.630;9.418;2023-10-08T07:02:28;37.20;;;20.20;;
40755;SDS011;26461;45.630;9.418;2023-10-08T07:05:34;33.30;;;22.13;;
40755;SDS011;26461;45.630;9.418;2023-10-08T07:08:40;35.77;;;20.97;;
40755;SDS011;26461;45.630;9.418;2023-10-08T07:11:46;43.07;;;24.17;;
40755;SDS011;26461;45.630;9.418;2023-10-08T07:14:53;44.80;;;25.27;;
40755;SDS011;26461;45.630;9.418;2023-10-08T07:18:00;40.73;;;24.90;;
40755;SDS011;26461;45.630;9.418;2023-10-08T07:21:13;44.13;;;26.80;;
40755;SDS011;26461;45.630;9.418;2023-10-08T07:24:23;54.33;;;27.27;;
40755;SDS011;26461;45.630;9.418;2023-10-08T07:27:28;42.40;;;28.10;;
40755;SDS011;26461;45.630;9.418;2023-10-08T07:30:36;51.57;;;30.47;;
40755;SDS011;26461;45.630;9.418;2023-10-08T07:33:56;59.40;;;33.20;;
40755;SDS011;26461;45.630;9.418;2023-10-08T07:37:01;61.40;;;35.43;;
40755;SDS011;26461;45.630;9.418;2023-10-08T07:40:06;56.17;;;32.80;;
40755;SDS011;26461;45.630;9.418;2023-10-08T07:43:14;53.10;;;31.07;;
40755;SDS011;26461;45.630;9.418;2023-10-08T07:46:24;63.93;;;34.10;;
40755;SDS011;26461;45.630;9.418;2023-10-08T07:49:30;57.47;;;34.47;;
40755;SDS011;26461;45.630;9.418;2023-10-08T07:52:36;51.90;;;33.03;;
40755;SDS011;26461;45.630;9.418;2023-10-08T07:55:46;55.33;;;33.60;;
40755;SDS011;26461;45.630;9.418;2023-10-08T07:58:56;58.07;;;33.27;;
40755;SDS011;26461;45.630;9.418;2023-10-08T08:02:01;59.60;;;32.40;;
40755;SDS011;26461;45.630;9.418;2023-10-08T08:05:19;57.40;;;32.90;;
40755;SDS011;26461;45.630;9.418;2023-10-08T08:08:29;55.47;;;33.43;;
40755;SDS011;26461;45.630;9.418;2023-10-08T08:11:39;53.77;;;30.83;;
40755;SDS011;26461;45.630;9.418;2023-10-08T08:14:49;50.60;;;32.03;;
40755;SDS011;26461;45.630;9.418;2023-10-08T08:17:54;51.47;;;29.63;;
40755;SDS011;26461;45.630;9.418;2023-10-08T08:21:08;47.63;;;29.57;;
40755;SDS011;26461;45.630;9.418;2023-10-08T08:24:23;49.00;;;29.30;;
40755;SDS011;26461;45.630;9.418;2023-10-08T08:27:45;50.13;;;29.27;;
40755;SDS011;26461;45.630;9.418;2023-10-08T08:31:01;57.87;;;36.13;;
40755;SDS011;26461;45.630;9.418;2023-10-08T08:34:14;52.70;;;32.37;;
40755;SDS011;26461;45.630;9.418;2023-10-08T08:37:28;58.30;;;34.00;;
40755;SDS011;26461;45.630;9.418;2023-10-08T08:40:40;44.77;;;28.43;;
40755;SDS011;26461;45.630;9.418;2023-10-08T08:43:51;54.57;;;31.87;;
40755;SDS011;26461;45.630;9.418;2023-10-08T08:47:09;58.30;;;35.37;;
40755;SDS011;26461;45.630;9.418;2023-10-08T08:50:26;59.20;;;31.63;;
40755;SDS011;26461;45.630;9.418;2023-10-08T08:53:37;46.87;;;28.70;;
40755;SDS011;26461;45.630;9.418;2023-10-08T08:56:47;40.50;;;26.47;;
40755;SDS011;26461;45.630;9.418;2023-10-08T08:59:59;43.70;;;26.40;;
40755;SDS011;26461;45.630;9.418;2023-10-08T09:03:09;38.53;;;22.77;;
40755;SDS011;26461;45.630;9.418;2023-10-08T09:06:22;38.13;;;23.90;;
40755;SDS011;26461;45.630;9.418;2023-10-08T09:09:32;37.10;;;23.17;;
40755;SDS011;26461;45.630;9.418;2023-10-08T09:12:43;32.60;;;20.87;;
40755;SDS011;26461;45.630;9.418;2023-10-08T09:15:56;32.57;;;21.10;;
40755;SDS011;26461;45.630;9.418;2023-10-08T09:19:13;35.47;;;21.17;;
40755;SDS011;26461;45.630;9.418;2023-10-08T09:22:21;28.53;;;19.57;;
40755;SDS011;26461;45.630;9.418;2023-10-08T09:25:26;29.63;;;19.37;;
40755;SDS011;26461;45.630;9.418;2023-10-08T09:28:38;27.90;;;17.97;;
40755;SDS011;26461;45.630;9.418;2023-10-08T09:31:52;31.50;;;19.40;;
40755;SDS011;26461;45.630;9.418;2023-10-08T09:35:00;27.37;;;17.13;;
40755;SDS011;26461;45.630;9.418;2023-10-08T09:38:10;30.30;;;18.10;;
40755;SDS011;26461;45.630;9.418;2023-10-08T09:41:20;37.83;;;21.43;;
40755;SDS011;26461;45.630;9.418;2023-10-08T09:44:25;26.03;;;18.07;;
40755;SDS011;26461;45.630;9.418;2023-10-08T09:47:36;32.53;;;20.37;;
40755;SDS011;26461;45.630;9.418;2023-10-08T09:50:51;24.17;;;17.97;;
40755;SDS011;26461;45.630;9.418;2023-10-08T09:54:09;31.60;;;19.90;;
40755;SDS011;26461;45.630;9.418;2023-10-08T09:57:23;31.50;;;20.80;;
40755;SDS011;26461;45.630;9.418;2023-10-08T10:00:36;34.47;;;22.10;;
40755;SDS011;26461;45.630;9.418;2023-10-08T10:03:48;31.63;;;21.47;;
40755;SDS011;26461;45.630;9.418;2023-10-08T10:06:58;35.07;;;21.47;;
40755;SDS011;26461;45.630;9.418;2023-10-08T10:10:28;34.80;;;19.67;;
40755;SDS011;26461;45.630;9.418;2023-10-08T10:13:50;30.97;;;19.73;;
40755;SDS011;26461;45.630;9.418;2023-10-08T10:17:08;31.80;;;20.93;;
40755;SDS011;26461;45.630;9.418;2023-10-08T10:20:23;30.87;;;17.80;;
40755;SDS011;26461;45.630;9.418;2023-10-08T10:27:08;27.67;;;16.43;;
40755;SDS011;26461;45.630;9.418;2023-10-08T10:30:20;26.23;;;13.67;;
40755;SDS011;26461;45.630;9.418;2023-10-08T10:33:32;25.93;;;15.73;;
40755;SDS011;26461;45.630;9.418;2023-10-08T10:36:37;21.33;;;13.20;;
40755;SDS011;26461;45.630;9.418;2023-10-08T10:39:52;21.67;;;12.67;;
40755;SDS011;26461;45.630;9.418;2023-10-08T10:43:00;19.53;;;11.80;;
40755;SDS011;26461;45.630;9.418;2023-10-08T10:46:06;23.87;;;12.90;;
40755;SDS011;26461;45.630;9.418;2023-10-08T10:49:30;17.90;;;11.30;;
40755;SDS011;26461;45.630;9.418;2023-10-08T10:52:43;16.43;;;9.30;;
40755;SDS011;26461;45.630;9.418;2023-10-08T10:56:02;15.20;;;9.60;;
40755;SDS011;26461;45.630;9.418;2023-10-08T10:59:19;14.70;;;9.63;;
40755;SDS011;26461;45.630;9.418;2023-10-08T11:02:32;17.40;;;8.50;;
40755;SDS011;26461;45.630;9.418;2023-10-08T11:05:54;14.63;;;8.40;;
40755;SDS011;26461;45.630;9.418;2023-10-08T11:09:09;23.23;;;8.67;;
40755;SDS011;26461;45.630;9.418;2023-10-08T11:12:24;17.57;;;7.77;;
40755;SDS011;26461;45.630;9.418;2023-10-08T11:15:52;14.20;;;7.07;;
40755;SDS011;26461;45.630;9.418;2023-10-08T11:19:03;13.33;;;7.37;;
40755;SDS011;26461;45.630;9.418;2023-10-08T11:22:13;15.33;;;6.70;;
40755;SDS011;26461;45.630;9.418;2023-10-08T11:25:28;14.30;;;7.47;;
40755;SDS011;26461;45.630;9.418;2023-10-08T11:28:35;15.70;;;6.93;;
40755;SDS011;26461;45.630;9.418;2023-10-08T11:31:48;14.83;;;7.70;;
40755;SDS011;26461;45.630;9.418;2023-10-08T11:34:59;12.77;;;7.20;;
40755;SDS011;26461;45.630;9.418;2023-10-08T11:38:09;9.43;;;5.87;;
40755;SDS011;26461;45.630;9.418;2023-10-08T11:41:31;13.37;;;6.97;;
40755;SDS011;26461;45.630;9.418;2023-10-08T11:44:49;12.63;;;6.47;;
40755;SDS011;26461;45.630;9.418;2023-10-08T11:48:02;12.67;;;6.40;;
40755;SDS011;26461;45.630;9.418;2023-10-08T11:51:28;15.07;;;6.37;;
40755;SDS011;26461;45.630;9.418;2023-10-08T11:54:34;15.57;;;6.70;;
40755;SDS011;26461;45.630;9.418;2023-10-08T11:57:40;9.40;;;5.90;;
40755;SDS011;26461;45.630;9.418;2023-10-08T12:00:55;10.60;;;5.37;;
40755;SDS011;26461;45.630;9.418;2023-10-08T12:04:03;10.67;;;5.50;;
40755;SDS011;26461;45.630;9.418;2023-10-08T12:07:14;22.67;;;5.53;;
40755;SDS011;26461;45.630;9.418;2023-10-08T12:10:26;15.13;;;5.77;;
40755;SDS011;26461;45.630;9.418;2023-10-08T12:13:35;8.57;;;4.40;;
40755;SDS011;26461;45.630;9.418;2023-10-08T12:16:41;10.77;;;5.23;;
40755;SDS011;26461;45.630;9.418;2023-10-08T12:19:51;12.07;;;5.23;;
40755;SDS011;26461;45.630;9.418;2023-10-08T12:23:02;10.90;;;5.13;;
40755;SDS011;26461;45.630;9.418;2023-10-08T12:26:13;10.87;;;5.93;;
40755;SDS011;26461;45.630;9.418;2023-10-08T12:29:27;21.00;;;4.57;;
40755;SDS011;26461;45.630;9.418;2023-10-08T12:32:38;11.50;;;5.17;;
40755;SDS011;26461;45.630;9.418;2023-10-08T12:35:51;13.70;;;5.37;;
40755;SDS011;26461;45.630;9.418;2023-10-08T12:39:03;22.07;;;5.67;;
40755;SDS011;26461;45.630;9.418;2023-10-08T12:42:19;8.87;;;5.83;;
40755;SDS011;26461;45.630;9.418;2023-10-08T12:45:30;12.17;;;6.30;;
40755;SDS011;26461;45.630;9.418;2023-10-08T12:48:40;13.67;;;6.13;;
40755;SDS011;26461;45.630;9.418;2023-10-08T12:51:53;12.67;;;6.40;;
40755;SDS011;26461;45.630;9.418;2023-10-08T12:55:05;11.03;;;6.03;;
40755;SDS011;26461;45.630;9.418;2023-10-08T12:58:16;9.80;;;6.87;;
40755;SDS011;26461;45.630;9.418;2023-10-08T13:01:26;14.43;;;7.73;;
40755;SDS011;26461;45.630;9.418;2023-10-08T13:04:38;16.03;;;8.63;;
40755;SDS011;26461;45.630;9.418;2023-10-08T13:07:51;17.20;;;7.03;;
40755;SDS011;26461;45.630;9.418;2023-10-08T13:11:03;13.20;;;8.87;;
40755;SDS011;26461;45.630;9.418;2023-10-08T13:14:13;12.40;;;7.60;;
40755;SDS011;26461;45.630;9.418;2023-10-08T13:17:23;10.63;;;6.90;;
40755;SDS011;26461;45.630;9.418;2023-10-08T13:20:29;17.10;;;8.17;;
40755;SDS011;26461;45.630;9.418;2023-10-08T13:23:39;13.00;;;7.67;;
40755;SDS011;26461;45.630;9.418;2023-10-08T13:26:48;21.30;;;8.27;;
40755;SDS011;26461;45.630;9.418;2023-10-08T13:29:59;11.80;;;5.90;;
40755;SDS011;26461;45.630;9.418;2023-10-08T13:33:13;8.40;;;5.90;;
40755;SDS011;26461;45.630;9.418;2023-10-08T13:36:23;10.87;;;7.30;;
40755;SDS011;26461;45.630;9.418;2023-10-08T13:39:34;10.27;;;6.77;;
40755;SDS011;26461;45.630;9.418;2023-10-08T13:42:39;27.03;;;8.50;;
40755;SDS011;26461;45.630;9.418;2023-10-08T13:45:51;12.47;;;7.13;;
40755;SDS011;26461;45.630;9.418;2023-10-08T13:49:03;15.13;;;7.93;;
40755;SDS011;26461;45.630;9.418;2023-10-08T13:52:15;20.60;;;8.20;;
40755;SDS011;26461;45.630;9.418;2023-10-08T13:55:27;11.40;;;6.87;;
40755;SDS011;26461;45.630;9.418;2023-10-08T13:58:37;12.10;;;7.53;;
40755;SDS011;26461;45.630;9.418;2023-10-08T14:01:59;17.77;;;6.40;;
40755;SDS011;26461;45.630;9.418;2023-10-08T14:05:11;12.27;;;6.90;;
40755;SDS011;26461;45.630;9.418;2023-10-08T14:08:24;14.37;;;7.93;;
40755;SDS011;26461;45.630;9.418;2023-10-08T14:11:33;12.00;;;5.73;;
40755;SDS011;26461;45.630;9.418;2023-10-08T14:14:43;14.50;;;7.50;;
40755;SDS011;26461;45.630;9.418;2023-10-08T14:17:54;13.23;;;7.30;;
40755;SDS011;26461;45.630;9.418;2023-10-08T14:21:08;16.43;;;6.13;;
40755;SDS011;26461;45.630;9.418;2023-10-08T14:24:17;12.07;;;6.20;;
40755;SDS011;26461;45.630;9.418;2023-10-08T14:27:27;12.47;;;7.40;;
40755;SDS011;26461;45.630;9.418;2023-10-08T14:30:41;10.47;;;5.60;;
40755;SDS011;26461;45.630;9.418;2023-10-08T14:33:52;14.63;;;6.57;;
40755;SDS011;26461;45.630;9.418;2023-10-08T14:37:05;10.00;;;5.23;;
40755;SDS011;26461;45.630;9.418;2023-10-08T14:40:34;13.47;;;5.93;;
40755;SDS011;26461;45.630;9.418;2023-10-08T14:44:03;10.87;;;6.07;;
40755;SDS011;26461;45.630;9.418;2023-10-08T14:47:13;8.93;;;6.27;;
40755;SDS011;26461;45.630;9.418;2023-10-08T14:50:25;11.40;;;5.40;;
40755;SDS011;26461;45.630;9.418;2023-10-08T14:53:42;17.80;;;6.20;;
40755;SDS011;26461;45.630;9.418;2023-10-08T14:56:52;10.70;;;5.10;;
40755;SDS011;26461;45.630;9.418;2023-10-08T15:00:02;12.50;;;5.60;;
40755;SDS011;26461;45.630;9.418;2023-10-08T15:03:15;10.03;;;4.70;;
40755;SDS011;26461;45.630;9.418;2023-10-08T15:06:20;8.87;;;4.57;;
40755;SDS011;26461;45.630;9.418;2023-10-08T15:09:30;10.73;;;4.80;;
40755;SDS011;26461;45.630;9.418;2023-10-08T15:12:37;14.43;;;4.60;;
40755;SDS011;26461;45.630;9.418;2023-10-08T15:15:47;12.87;;;4.80;;
40755;SDS011;26461;45.630;9.418;2023-10-08T15:18:57;9.20;;;4.40;;
40755;SDS011;26461;45.630;9.418;2023-10-08T15:22:02;10.80;;;4.67;;
40755;SDS011;26461;45.630;9.418;2023-10-08T15:25:13;11.40;;;4.47;;
40755;SDS011;26461;45.630;9.418;2023-10-08T15:28:24;14.43;;;4.53;;
40755;SDS011;26461;45.630;9.418;2023-10-08T15:31:36;9.47;;;5.20;;
40755;SDS011;26461;45.630;9.418;2023-10-08T15:34:46;10.67;;;5.50;;
40755;SDS011;26461;45.630;9.418;2023-10-08T15:37:52;7.83;;;5.07;;
40755;SDS011;26461;45.630;9.418;2023-10-08T15:41:04;12.80;;;3.93;;
40755;SDS011;26461;45.630;9.418;2023-10-08T15:44:14;13.93;;;4.10;;
40755;SDS011;26461;45.630;9.418;2023-10-08T15:47:19;10.07;;;4.10;;
40755;SDS011;26461;45.630;9.418;2023-10-08T15:50:24;10.53;;;4.30;;
40755;SDS011;26461;45.630;9.418;2023-10-08T15:53:35;11.87;;;3.77;;
40755;SDS011;26461;45.630;9.418;2023-10-08T15:56:45;11.03;;;5.33;;
40755;SDS011;26461;45.630;9.418;2023-10-08T15:59:50;13.60;;;4.90;;
40755;SDS011;26461;45.630;9.418;2023-10-08T16:03:00;11.87;;;3.70;;
40755;SDS011;26461;45.630;9.418;2023-10-08T16:06:14;14.00;;;4.70;;
40755;SDS011;26461;45.630;9.418;2023-10-08T16:09:19;10.87;;;4.13;;
40755;SDS011;26461;45.630;9.418;2023-10-08T16:12:31;12.97;;;3.80;;
40755;SDS011;26461;45.630;9.418;2023-10-08T16:15:41;10.10;;;3.97;;
40755;SDS011;26461;45.630;9.418;2023-10-08T16:18:51;10.13;;;4.37;;
40755;SDS011;26461;45.630;9.418;2023-10-08T16:22:01;12.77;;;3.80;;
40755;SDS011;26461;45.630;9.418;2023-10-08T16:25:13;7.67;;;3.83;;
40755;SDS011;26461;45.630;9.418;2023-10-08T16:28:26;10.17;;;4.40;;
40755;SDS011;26461;45.630;9.418;2023-10-08T16:31:32;10.37;;;5.80;;
40755;SDS011;26461;45.630;9.418;2023-10-08T16:34:50;11.30;;;5.70;;
40755;SDS011;26461;45.630;9.418;2023-10-08T16:38:00;10.50;;;4.93;;
40755;SDS011;26461;45.630;9.418;2023-10-08T16:41:11;11.97;;;4.97;;
40755;SDS011;26461;45.630;9.418;2023-10-08T16:44:21;15.57;;;5.47;;
40755;SDS011;26461;45.630;9.418;2023-10-08T16:47:31;11.23;;;4.73;;
40755;SDS011;26461;45.630;9.418;2023-10-08T16:50:42;14.47;;;5.97;;
40755;SDS011;26461;45.630;9.418;2023-10-08T16:53:52;10.70;;;6.00;;
40755;SDS011;26461;45.630;9.418;2023-10-08T16:57:03;7.23;;;4.40;;
40755;SDS011;26461;45.630;9.418;2023-10-08T17:00:09;9.10;;;4.90;;
40755;SDS011;26461;45.630;9.418;2023-10-08T17:03:23;10.10;;;4.73;;
40755;SDS011;26461;45.630;9.418;2023-10-08T17:06:33;11.17;;;6.20;;
40755;SDS011;26461;45.630;9.418;2023-10-08T17:09:38;8.67;;;4.40;;
40755;SDS011;26461;45.630;9.418;2023-10-08T17:12:43;10.77;;;4.30;;
40755;SDS011;26461;45.630;9.418;2023-10-08T17:15:49;6.77;;;3.77;;
40755;SDS011;26461;45.630;9.418;2023-10-08T17:18:59;7.60;;;4.00;;
40755;SDS011;26461;45.630;9.418;2023-10-08T17:22:09;9.97;;;5.00;;
40755;SDS011;26461;45.630;9.418;2023-10-08T17:25:19;8.80;;;4.23;;
40755;SDS011;26461;45.630;9.418;2023-10-08T17:28:29;12.60;;;5.30;;
40755;SDS011;26461;45.630;9.418;2023-10-08T17:31:34;8.77;;;4.20;;
40755;SDS011;26461;45.630;9.418;2023-10-08T17:34:41;8.20;;;4.30;;
40755;SDS011;26461;45.630;9.418;2023-10-08T17:37:46;7.30;;;4.90;;
40755;SDS011;26461;45.630;9.418;2023-10-08T17:40:52;7.13;;;3.67;;
40755;SDS011;26461;45.630;9.418;2023-10-08T17:44:04;9.70;;;4.10;;
40755;SDS011;26461;45.630;9.418;2023-10-08T17:47:15;15.37;;;4.90;;
40755;SDS011;26461;45.630;9.418;2023-10-08T17:50:20;5.87;;;3.73;;
40755;SDS011;26461;45.630;9.418;2023-10-08T17:53:31;8.67;;;3.90;;
40755;SDS011;26461;45.630;9.418;2023-10-08T17:56:37;7.07;;;3.37;;
40755;SDS011;26461;45.630;9.418;2023-10-08T17:59:43;6.53;;;3.63;;
40755;SDS011;26461;45.630;9.418;2023-10-08T18:02:53;10.77;;;5.53;;
40755;SDS011;26461;45.630;9.418;2023-10-08T18:06:03;6.93;;;4.30;;
40755;SDS011;26461;45.630;9.418;2023-10-08T18:09:13;11.07;;;3.43;;
40755;SDS011;26461;45.630;9.418;2023-10-08T18:12:29;9.97;;;3.90;;
40755;SDS011;26461;45.630;9.418;2023-10-08T18:15:39;18.83;;;3.60;;
40755;SDS011;26461;45.630;9.418;2023-10-08T18:18:49;14.77;;;4.03;;
40755;SDS011;26461;45.630;9.418;2023-10-08T18:21:59;14.53;;;4.87;;
40755;SDS011;26461;45.630;9.418;2023-10-08T18:25:09;12.70;;;5.90;;
40755;SDS011;26461;45.630;9.418;2023-10-08T18:28:19;6.60;;;3.80;;
40755;SDS011;26461;45.630;9.418;2023-10-08T18:31:29;7.60;;;5.40;;
40755;SDS011;26461;45.630;9.418;2023-10-08T18:34:40;8.33;;;4.00;;
40755;SDS011;26461;45.630;9.418;2023-10-08T18:37:52;20.63;;;4.10;;
40755;SDS011;26461;45.630;9.418;2023-10-08T18:41:09;5.13;;;3.07;;
40755;SDS011;26461;45.630;9.418;2023-10-08T18:44:22;8.83;;;4.00;;
40755;SDS011;26461;45.630;9.418;2023-10-08T18:47:28;7.40;;;3.77;;
40755;SDS011;26461;45.630;9.418;2023-10-08T18:50:42;6.50;;;4.17;;
40755;SDS011;26461;45.630;9.418;2023-10-08T18:53:48;7.83;;;3.40;;
40755;SDS011;26461;45.630;9.418;2023-10-08T18:56:59;13.43;;;4.23;;
40755;SDS011;26461;45.630;9.418;2023-10-08T19:00:13;12.87;;;3.67;;
40755;SDS011;26461;45.630;9.418;2023-10-08T19:03:23;4.70;;;2.90;;